createdAt,value
2023-05-03T00:04:41.420Z,42.2
2023-05-03T00:09:41.135Z,41.8
2023-05-03T00:14:41.526Z,42.2
2023-05-03T00:19:42.084Z,41.8
2023-05-03T00:24:45.377Z,41.8
2023-05-03T00:29:45.601Z,41.6
2023-05-03T00:34:45.888Z,41.7
2023-05-03T00:39:46.329Z,42
2023-05-03T00:44:46.834Z,41.5
2023-05-03T00:49:47.403Z,41.3
2023-05-03T00:54:47.818Z,41.8
2023-05-03T00:59:48.536Z,41.7
2023-05-03T01:04:49.303Z,41.8
2023-05-03T01:09:50.002Z,41.1
2023-05-03T01:14:50.665Z,41.2
2023-05-03T01:19:54.700Z,41.2
2023-05-03T01:24:54.875Z,41.4
2023-05-03T01:29:55.406Z,41.3
2023-05-03T01:34:55.998Z,41.5
2023-05-03T01:39:56.568Z,41.3
2023-05-03T01:44:56.963Z,41.3
2023-05-03T01:50:00.711Z,41.5
2023-05-03T01:55:02.822Z,41.4
2023-05-03T02:00:02.746Z,41.4
2023-05-03T02:05:03.392Z,40.7
2023-05-03T02:10:04.173Z,41.1
2023-05-03T02:15:04.369Z,41.3
2023-05-03T02:20:04.994Z,41
2023-05-03T02:25:05.087Z,41.3
2023-05-03T02:30:05.948Z,40.6
2023-05-03T02:35:06.085Z,40.9
2023-05-03T02:40:06.767Z,40.9
2023-05-03T02:45:07.062Z,40.5
2023-05-03T02:50:07.729Z,40.6
2023-05-03T02:55:10.932Z,40.4
2023-05-03T03:00:15.440Z,40.1
2023-05-03T03:04:38.190Z,40.7
2023-05-03T03:09:38.082Z,40.1
2023-05-03T03:14:38.501Z,40.6
2023-05-03T03:19:38.894Z,40.4
2023-05-03T03:24:34.739Z,40.4
2023-05-03T03:29:35.270Z,40.4
2023-05-03T03:34:38.553Z,40.5
2023-05-03T03:39:38.713Z,40.5
2023-05-03T03:44:39.377Z,40
2023-05-03T03:49:42.644Z,40.5
2023-05-03T03:54:42.752Z,40.3
2023-05-03T03:59:46.034Z,40.2
2023-05-03T04:04:46.078Z,40.2
2023-05-03T04:09:49.299Z,40.2
2023-05-03T04:14:53.486Z,39.9
2023-05-03T04:19:53.375Z,40.2
2023-05-03T04:24:53.854Z,40.4
2023-05-03T04:29:54.335Z,40
2023-05-03T04:34:54.456Z,39.9
2023-05-03T04:39:57.973Z,40.1
2023-05-03T04:45:00.748Z,39.4
2023-05-03T04:50:01.231Z,39.9
2023-05-03T04:55:01.046Z,40
2023-05-03T05:00:04.493Z,39.9
2023-05-03T05:05:04.313Z,39.4
2023-05-03T05:10:04.667Z,39.7
2023-05-03T05:15:04.995Z,39.7
2023-05-03T05:20:05.730Z,39.5
2023-05-03T05:25:08.841Z,39.4
2023-05-03T05:30:08.935Z,39.2
2023-05-03T05:35:09.475Z,39.2
2023-05-03T05:40:09.871Z,39.2
2023-05-03T05:45:10.560Z,40
2023-05-03T05:50:17.333Z,39.5
2023-05-03T05:55:11.294Z,39.9
2023-05-03T06:00:26.680Z,39.8
2023-05-03T06:05:25.056Z,40.2
2023-05-03T06:10:29.241Z,40.5
2023-05-03T06:15:31.114Z,40.6
2023-05-03T06:20:34.008Z,40.6
2023-05-03T06:25:36.786Z,40.8
2023-05-03T06:30:39.580Z,40.7
2023-05-03T06:35:39.801Z,40.3
2023-05-03T06:40:39.362Z,40.4
2023-05-03T06:45:44.093Z,40.2
2023-05-03T06:50:43.659Z,40.3
2023-05-03T06:55:44.163Z,40.2
2023-05-03T07:00:44.617Z,39.9
2023-05-03T07:05:45.034Z,40
2023-05-03T07:10:48.219Z,40
2023-05-03T07:15:51.038Z,39.7
2023-05-03T07:20:52.992Z,40
2023-05-03T07:25:56.904Z,39.8
2023-05-03T07:30:56.801Z,39.7
2023-05-03T07:36:00.152Z,39.4
2023-05-03T07:41:02.966Z,39.2
2023-05-03T07:46:03.163Z,39.2
2023-05-03T07:51:06.687Z,39.2
2023-05-03T07:56:06.801Z,39.5
2023-05-03T08:01:07.267Z,39.5
2023-05-03T08:06:07.890Z,39.6
2023-05-03T08:11:11.232Z,39.2
2023-05-03T08:16:11.177Z,39.1
2023-05-03T08:21:11.784Z,38.9
2023-05-03T08:26:12.372Z,38.9
2023-05-03T08:31:13.096Z,39.1
2023-05-03T08:36:13.499Z,39
2023-05-03T08:41:14.022Z,39.2
2023-05-03T08:46:14.415Z,39.3
2023-05-03T08:51:15.037Z,39.6
2023-05-03T08:56:15.277Z,39.2
2023-05-03T09:01:10.158Z,39.7
2023-05-03T09:06:10.882Z,39.7
2023-05-03T09:11:11.468Z,40.2
2023-05-03T09:16:11.930Z,40.1
2023-05-03T09:21:12.414Z,40.2
2023-05-03T09:26:15.733Z,40.3
2023-05-03T09:31:15.719Z,40.3
2023-05-03T09:36:16.333Z,40.4
2023-05-03T09:41:16.946Z,40.4
2023-05-03T09:46:17.796Z,40.5
2023-05-03T09:51:18.253Z,41.2
2023-05-03T09:56:19.181Z,41.2
2023-05-03T10:01:20.119Z,40.3
2023-05-03T10:06:20.569Z,37.6
2023-05-03T10:31:28.334Z,36.9
2023-05-03T10:36:35.441Z,36.7
2023-05-03T10:41:31.945Z,36.5
2023-05-03T11:01:38.227Z,35.9
2023-05-03T11:11:38.329Z,36.8
2023-05-03T11:26:41.317Z,40.5
2023-05-03T11:31:44.465Z,40.4
2023-05-03T11:36:44.273Z,41
2023-05-03T11:41:44.990Z,41.3
2023-05-03T11:46:48.129Z,41.6
2023-05-03T11:51:49.290Z,41.8
2023-05-03T11:56:48.137Z,42.2
2023-05-03T12:01:48.649Z,42.1
2023-05-03T12:06:50.082Z,42.1
2023-05-03T12:11:43.341Z,42.1
2023-05-03T12:16:42.384Z,42.1
2023-05-03T12:21:43.931Z,42.3
2023-05-03T12:26:44.309Z,42.2
2023-05-03T12:31:44.874Z,42.1
2023-05-03T12:36:48.015Z,42
2023-05-03T12:46:46.429Z,41.8
2023-05-03T12:51:54.647Z,42.1
2023-05-03T12:56:53.046Z,42.1
2023-05-03T13:02:22.225Z,42
2023-05-03T13:06:58.698Z,42
2023-05-03T13:11:55.536Z,42
2023-05-03T13:16:55.956Z,42.2
2023-05-03T13:21:58.960Z,42.1
2023-05-03T13:26:58.973Z,42.1
2023-05-03T13:31:59.565Z,41.9
2023-05-03T13:36:59.818Z,41.9
2023-05-03T13:42:00.546Z,42.2
2023-05-03T13:47:00.751Z,42.3
2023-05-03T13:52:01.260Z,42.5
2023-05-03T13:57:04.398Z,42.4
2023-05-03T14:02:05.421Z,42.4
2023-05-03T14:07:05.868Z,42.6
2023-05-03T14:12:09.256Z,42.6
2023-05-03T14:17:09.544Z,42.8
2023-05-03T14:22:09.771Z,42.8
2023-05-03T14:27:10.355Z,43
2023-05-03T14:32:10.946Z,43.1
2023-05-03T14:37:14.406Z,43.1
2023-05-03T14:42:14.606Z,43.1
2023-05-03T14:47:15.212Z,43.2
2023-05-03T14:52:18.316Z,43.3
2023-05-03T14:57:18.400Z,43.3
2023-05-03T15:02:18.728Z,43.3
2023-05-03T15:07:19.169Z,43.5
2023-05-03T15:12:22.222Z,43.5
2023-05-03T15:17:23.931Z,43.5
2023-05-03T15:22:24.172Z,43.3
2023-05-03T15:27:24.505Z,43.5
2023-05-03T15:32:24.762Z,43.5
2023-05-03T15:37:24.956Z,43.5
2023-05-03T15:42:25.225Z,43.6
2023-05-03T15:47:24.506Z,43.5
2023-05-03T15:52:25.177Z,43.4
2023-05-03T15:57:29.273Z,43.5
2023-05-03T16:02:28.027Z,43.4
2023-05-03T16:07:28.367Z,43.4
2023-05-03T16:12:29.021Z,43.6
2023-05-03T16:17:46.454Z,43.6
2023-05-03T16:22:48.547Z,43.9
2023-05-03T16:27:47.434Z,43.7
2023-05-03T16:32:50.583Z,43.7
2023-05-03T16:38:03.578Z,43.7
2023-05-03T16:43:02.274Z,43.8
2023-05-03T16:48:04.993Z,43.7
2023-05-03T16:53:03.117Z,43.9
2023-05-03T16:58:06.345Z,43.7
2023-05-03T17:03:07.090Z,43.8
2023-05-03T17:08:07.559Z,43.8
2023-05-03T17:13:08.242Z,43.7
2023-05-03T17:18:08.750Z,43.8
2023-05-03T17:23:09.093Z,43.7
2023-05-03T17:28:09.445Z,43.8
2023-05-03T17:33:10.041Z,44.1
2023-05-03T17:38:10.422Z,43.9
2023-05-03T17:43:13.482Z,43.9
2023-05-03T17:48:16.426Z,43.9
2023-05-03T17:53:16.175Z,44.1
2023-05-03T17:58:16.789Z,43.9
2023-05-03T18:03:17.386Z,44.1
2023-05-03T18:08:18.258Z,44.1
2023-05-03T18:13:18.531Z,44.3
2023-05-03T18:18:18.791Z,44.2
2023-05-03T18:23:21.964Z,43.9
2023-05-03T18:28:21.920Z,44
2023-05-03T18:33:22.365Z,44
2023-05-03T18:38:22.788Z,43.9
2023-05-03T18:43:26.228Z,44
2023-05-03T18:48:26.181Z,44.1
2023-05-03T18:53:26.800Z,44
2023-05-03T18:58:27.499Z,44
2023-05-03T19:03:28.002Z,43.9
2023-05-03T19:08:28.594Z,44
2023-05-03T19:13:29.292Z,44
2023-05-03T19:18:29.795Z,44
2023-05-03T19:23:30.110Z,44
2023-05-03T19:28:31.185Z,44.1
2023-05-03T19:33:31.807Z,44.2
2023-05-03T19:38:32.260Z,44.1
2023-05-03T19:43:35.642Z,44.2
2023-05-03T19:48:35.600Z,44.2
2023-05-03T19:53:39.037Z,44
2023-05-03T19:58:38.816Z,44.4
2023-05-03T20:03:42.135Z,44.3
2023-05-03T20:08:44.762Z,44.3
2023-05-03T20:13:47.666Z,44
2023-05-03T20:18:47.468Z,44.3
2023-05-03T20:23:50.730Z,44.3
2023-05-03T20:28:50.889Z,44.4
2023-05-03T20:33:45.060Z,44.1
2023-05-03T20:38:48.281Z,44.3
2023-05-03T20:43:48.156Z,44.1
2023-05-03T20:48:51.478Z,44.4
2023-05-03T20:53:51.498Z,44.2
2023-05-03T20:58:51.706Z,44.2
2023-05-03T21:03:52.267Z,44.4
2023-05-03T21:08:52.583Z,44.4
2023-05-03T21:13:55.896Z,44.2
2023-05-03T21:19:00.072Z,44.2
2023-05-03T21:24:02.686Z,44.2
2023-05-03T21:29:05.386Z,44.2
2023-05-03T21:34:08.006Z,44.1
2023-05-03T21:39:07.917Z,44.2
2023-05-03T21:44:08.314Z,44.2
2023-05-03T21:49:11.500Z,44.1
2023-05-03T21:54:11.545Z,44.1
2023-05-03T21:59:12.818Z,44.4
2023-05-03T22:04:13.045Z,44.1
2023-05-03T22:09:16.255Z,44.1
2023-05-03T22:14:19.124Z,44.2
2023-05-03T22:19:21.850Z,44.1
2023-05-03T22:24:21.880Z,44
2023-05-03T22:29:22.710Z,44.1
2023-05-03T22:34:25.845Z,43.8
2023-05-03T22:39:28.700Z,43.8
2023-05-03T22:44:28.572Z,44
2023-05-03T22:49:28.956Z,44.1
2023-05-03T22:54:29.333Z,44.2
2023-05-03T22:59:29.897Z,44.3
2023-05-03T23:04:30.416Z,44.2
2023-05-03T23:09:30.792Z,44.1
2023-05-03T23:14:31.274Z,44.3
2023-05-03T23:19:31.737Z,44.2
2023-05-03T23:24:32.240Z,44.5
2023-05-03T23:29:32.986Z,44.4
2023-05-03T23:34:33.622Z,44.5
2023-05-03T23:39:36.883Z,44.4
2023-05-03T23:44:50.783Z,44.3
2023-05-03T23:49:37.381Z,44.5
2023-05-03T23:54:37.962Z,44.4
2023-05-03T23:59:39.238Z,44.4
